HUF890 LHKE-ESPE
Flight info
| Callsign | HUF890 |
|---|---|
| Flight time | 3h 2m |
| Altitude | 36000 |
| Route | ERGUZ DCT BABKO Z169 POLON N133 GRUDA/N0436F370 N191 NIKMI/N0435F360 DCT VAGVO/N0436F370 L59 GELDA/N0436F360 DCT DIGOX DCT BAKLA DCT MOTIG DCT OSKIR |
| Aircraft | A319/M-SDE3FGHIRWY/LB1 |
Departure
| Time | 2026-05-04 06:05 |
|---|---|
| Airport | Kecskemét Air Base (LHKE) |
Arrival
| Time | 2026-05-04 09:07 |
|---|---|
| Airport | Vidsel Air Base (ESPE) |
| Time | Latitude | Longitude | Altitude | Speed | Heading |
|---|---|---|---|---|---|
| 2026-05-04 05:45 | 46.91129 | 19.75664 | 384 ft | 0 kts | 237° |
| 2026-05-04 06:03 | 46.91051 | 19.75660 | 383 ft | 9 kts | 147° |
| 2026-05-04 06:03 | 46.90991 | 19.75736 | 383 ft | 11 kts | 114° |
| 2026-05-04 06:05 | 46.91591 | 19.75272 | 384 ft | 112 kts | 302° |
| 2026-05-04 06:05 | 46.92764 | 19.72618 | 1000 ft | 172 kts | 302° |
| 2026-05-04 06:05 | 46.93449 | 19.71091 | 1601 ft | 188 kts | 301° |
| 2026-05-04 06:06 | 46.94187 | 19.69454 | 2222 ft | 204 kts | 303° |
| 2026-05-04 06:06 | 46.95246 | 19.68054 | 3022 ft | 215 kts | 339° |
| 2026-05-04 06:06 | 46.96732 | 19.67953 | 3791 ft | 225 kts | 21° |
| 2026-05-04 06:06 | 46.97980 | 19.69280 | 4555 ft | 232 kts | 52° |
| 2026-05-04 06:07 | 46.98965 | 19.71197 | 5424 ft | 239 kts | 55° |
| 2026-05-04 06:07 | 46.99981 | 19.73114 | 6371 ft | 243 kts | 52° |
| 2026-05-04 06:07 | 47.01079 | 19.74962 | 7344 ft | 245 kts | 49° |
| 2026-05-04 06:07 | 47.02232 | 19.76759 | 8268 ft | 246 kts | 47° |
| 2026-05-04 06:08 | 47.03413 | 19.78530 | 9188 ft | 247 kts | 46° |
| 2026-05-04 06:08 | 47.04672 | 19.80216 | 10082 ft | 249 kts | 32° |
| 2026-05-04 06:08 | 47.06307 | 19.80922 | 10967 ft | 253 kts | 2° |
| 2026-05-04 06:08 | 47.08062 | 19.80724 | 11781 ft | 256 kts | 357° |
| 2026-05-04 06:09 | 47.09833 | 19.80470 | 12517 ft | 261 kts | 357° |
| 2026-05-04 06:09 | 47.11647 | 19.80221 | 13252 ft | 265 kts | 357° |
| 2026-05-04 06:11 | 47.24731 | 19.78529 | 18243 ft | 277 kts | 357° |
| 2026-05-04 06:11 | 47.26664 | 19.78283 | 18874 ft | 279 kts | 357° |
| 2026-05-04 06:13 | 47.40454 | 19.76521 | 22973 ft | 293 kts | 356° |
| 2026-05-04 06:14 | 47.53892 | 19.74798 | 24491 ft | 357 kts | 355° |
| 2026-05-04 06:14 | 47.56384 | 19.74476 | 24693 ft | 367 kts | 355° |
| 2026-05-04 06:15 | 47.58950 | 19.74145 | 24887 ft | 377 kts | 356° |
| 2026-05-04 06:15 | 47.61588 | 19.73804 | 25168 ft | 384 kts | 356° |
| 2026-05-04 06:15 | 47.64242 | 19.73460 | 25592 ft | 387 kts | 356° |
| 2026-05-04 06:15 | 47.66944 | 19.73111 | 26037 ft | 388 kts | 356° |
| 2026-05-04 06:16 | 47.69617 | 19.72766 | 26458 ft | 390 kts | 355° |
| 2026-05-04 06:16 | 47.72343 | 19.72414 | 26848 ft | 393 kts | 355° |
| 2026-05-04 06:16 | 47.75031 | 19.72066 | 27228 ft | 395 kts | 355° |
| 2026-05-04 06:16 | 47.77776 | 19.71709 | 27617 ft | 397 kts | 355° |
| 2026-05-04 06:17 | 47.80513 | 19.71354 | 27989 ft | 399 kts | 355° |
| 2026-05-04 06:17 | 47.83274 | 19.70995 | 28352 ft | 401 kts | 355° |
| 2026-05-04 06:17 | 47.86076 | 19.70631 | 28714 ft | 402 kts | 355° |
| 2026-05-04 06:17 | 47.88853 | 19.70268 | 29050 ft | 404 kts | 355° |
| 2026-05-04 06:18 | 47.91660 | 19.69900 | 29380 ft | 406 kts | 355° |
| 2026-05-04 06:18 | 47.94466 | 19.69533 | 29701 ft | 408 kts | 355° |
| 2026-05-04 06:18 | 47.97308 | 19.69161 | 30018 ft | 410 kts | 355° |
| 2026-05-04 06:20 | 48.17296 | 19.66539 | 32522 ft | 410 kts | 355° |
| 2026-05-04 06:20 | 48.20125 | 19.66166 | 32878 ft | 410 kts | 355° |
| 2026-05-04 06:21 | 48.31431 | 19.64671 | 34189 ft | 407 kts | 355° |
| 2026-05-04 06:21 | 48.34256 | 19.64297 | 34476 ft | 407 kts | 355° |
| 2026-05-04 06:22 | 48.37056 | 19.63925 | 34704 ft | 408 kts | 355° |
| 2026-05-04 06:22 | 48.39880 | 19.63550 | 34901 ft | 409 kts | 355° |
| 2026-05-04 06:25 | 48.77190 | 19.58546 | 36154 ft | 418 kts | 355° |
| 2026-05-04 06:26 | 48.82976 | 19.57764 | 36153 ft | 418 kts | 355° |
| 2026-05-04 06:26 | 48.88778 | 19.56978 | 36154 ft | 418 kts | 355° |
| 2026-05-04 06:27 | 49.03225 | 19.55007 | 36146 ft | 419 kts | 355° |
| 2026-05-04 06:28 | 49.09043 | 19.54212 | 36145 ft | 419 kts | 355° |
| 2026-05-04 06:28 | 49.14834 | 19.53422 | 36146 ft | 419 kts | 355° |
| 2026-05-04 06:29 | 49.20654 | 19.52625 | 36144 ft | 420 kts | 355° |
| 2026-05-04 06:29 | 49.26437 | 19.51829 | 36141 ft | 420 kts | 354° |
| 2026-05-04 06:30 | 49.32255 | 19.51025 | 36140 ft | 420 kts | 354° |
| 2026-05-04 06:30 | 49.38073 | 19.50218 | 36140 ft | 420 kts | 354° |
| 2026-05-04 06:31 | 49.43879 | 19.49411 | 36133 ft | 420 kts | 354° |
| 2026-05-04 06:31 | 49.49709 | 19.48596 | 36133 ft | 421 kts | 354° |
| 2026-05-04 06:33 | 49.73091 | 19.47970 | 36115 ft | 422 kts | 2° |
| 2026-05-04 06:34 | 49.78924 | 19.48460 | 36102 ft | 422 kts | 2° |
| 2026-05-04 06:34 | 49.84772 | 19.48945 | 36098 ft | 422 kts | 2° |
| 2026-05-04 06:36 | 50.08239 | 19.50888 | 36088 ft | 423 kts | 2° |
| 2026-05-04 06:37 | 50.14116 | 19.51377 | 36083 ft | 424 kts | 2° |
| 2026-05-04 06:37 | 50.19986 | 19.51864 | 36082 ft | 424 kts | 2° |
| 2026-05-04 06:38 | 50.25878 | 19.52356 | 36084 ft | 424 kts | 2° |
| 2026-05-04 06:40 | 50.49402 | 19.54334 | 36070 ft | 424 kts | 2° |
| 2026-05-04 06:40 | 50.55325 | 19.54836 | 36072 ft | 425 kts | 2° |
| 2026-05-04 06:41 | 50.61191 | 19.55333 | 36070 ft | 425 kts | 2° |
| 2026-05-04 06:41 | 50.67091 | 19.55835 | 36065 ft | 425 kts | 2° |
| 2026-05-04 06:42 | 50.72997 | 19.56338 | 36061 ft | 425 kts | 2° |
| 2026-05-04 06:44 | 50.96617 | 19.58362 | 36049 ft | 427 kts | 2° |
| 2026-05-04 06:44 | 51.02543 | 19.58872 | 36052 ft | 427 kts | 2° |
| 2026-05-04 06:45 | 51.08473 | 19.59382 | 36049 ft | 427 kts | 2° |
| 2026-05-04 06:45 | 51.14386 | 19.59892 | 36046 ft | 427 kts | 2° |
| 2026-05-04 06:46 | 51.20290 | 19.60401 | 36045 ft | 427 kts | 2° |
| 2026-05-04 06:46 | 51.26235 | 19.60916 | 36036 ft | 428 kts | 1° |
| 2026-05-04 06:48 | 51.49973 | 19.63005 | 36032 ft | 428 kts | 1° |
| 2026-05-04 06:50 | 51.73746 | 19.64978 | 36023 ft | 430 kts | 358° |
| 2026-05-04 06:51 | 51.79724 | 19.64445 | 36021 ft | 429 kts | 351° |
| 2026-05-04 06:51 | 51.85576 | 19.62805 | 36020 ft | 428 kts | 345° |
| 2026-05-04 06:52 | 51.91266 | 19.60208 | 36016 ft | 427 kts | 341° |
| 2026-05-04 06:52 | 51.96920 | 19.57394 | 36004 ft | 427 kts | 341° |
| 2026-05-04 06:53 | 52.02610 | 19.54575 | 35997 ft | 428 kts | 341° |
| 2026-05-04 06:53 | 52.08288 | 19.51771 | 35989 ft | 429 kts | 341° |
| 2026-05-04 06:54 | 52.13990 | 19.48959 | 35987 ft | 429 kts | 341° |
| 2026-05-04 06:54 | 52.19683 | 19.46156 | 35988 ft | 429 kts | 341° |
| 2026-05-04 06:55 | 52.25376 | 19.43330 | 35986 ft | 429 kts | 341° |
| 2026-05-04 06:55 | 52.31039 | 19.40505 | 35983 ft | 429 kts | 340° |
| 2026-05-04 06:57 | 52.53848 | 19.28999 | 35973 ft | 430 kts | 339° |
| 2026-05-04 06:58 | 52.59526 | 19.26128 | 35975 ft | 430 kts | 339° |
| 2026-05-04 06:58 | 52.65249 | 19.23231 | 35967 ft | 430 kts | 339° |
| 2026-05-04 06:59 | 52.70958 | 19.20329 | 35963 ft | 431 kts | 339° |
| 2026-05-04 06:59 | 52.76665 | 19.17420 | 35962 ft | 431 kts | 339° |
| 2026-05-04 07:01 | 52.99502 | 19.05690 | 35946 ft | 432 kts | 339° |
| 2026-05-04 07:02 | 53.05224 | 19.02732 | 35943 ft | 431 kts | 339° |
| 2026-05-04 07:02 | 53.10957 | 18.99758 | 35937 ft | 431 kts | 339° |
| 2026-05-04 07:03 | 53.16686 | 18.96797 | 35935 ft | 432 kts | 339° |
| 2026-05-04 07:03 | 53.22400 | 18.93829 | 35932 ft | 432 kts | 338° |
| 2026-05-04 07:04 | 53.28126 | 18.90836 | 35929 ft | 433 kts | 338° |
| 2026-05-04 07:04 | 53.33874 | 18.87818 | 35931 ft | 433 kts | 338° |
| 2026-05-04 07:05 | 53.39582 | 18.84812 | 35928 ft | 433 kts | 338° |
| 2026-05-04 07:05 | 53.45336 | 18.81903 | 35918 ft | 435 kts | 342° |
| 2026-05-04 07:06 | 53.51364 | 18.80540 | 35914 ft | 442 kts | 354° |
| 2026-05-04 07:06 | 53.54406 | 18.80651 | 35915 ft | 444 kts | 1° |
| 2026-05-04 07:07 | 53.60486 | 18.82497 | 35913 ft | 449 kts | 13° |
| 2026-05-04 07:09 | 53.84254 | 18.95207 | 35909 ft | 450 kts | 14° |
| 2026-05-04 07:09 | 53.90213 | 18.98397 | 35903 ft | 450 kts | 14° |
| 2026-05-04 07:10 | 53.96155 | 19.01588 | 35903 ft | 450 kts | 14° |
| 2026-05-04 07:12 | 54.20057 | 19.13751 | 35898 ft | 447 kts | 6° |
| 2026-05-04 07:12 | 54.26197 | 19.15004 | 35906 ft | 445 kts | 359° |
| 2026-05-04 07:13 | 54.32341 | 19.15428 | 35909 ft | 444 kts | 357° |
| 2026-05-04 07:13 | 54.38487 | 19.15788 | 35907 ft | 445 kts | 357° |
| 2026-05-04 07:14 | 54.53927 | 19.16776 | 35903 ft | 446 kts | 357° |
| 2026-05-04 07:15 | 54.60099 | 19.17182 | 35904 ft | 447 kts | 358° |
| 2026-05-04 07:15 | 54.66297 | 19.17591 | 35900 ft | 447 kts | 358° |
| 2026-05-04 07:16 | 54.72465 | 19.18000 | 35898 ft | 447 kts | 358° |
| 2026-05-04 07:16 | 54.78683 | 19.18416 | 35899 ft | 447 kts | 357° |
| 2026-05-04 07:17 | 54.84873 | 19.18830 | 35899 ft | 446 kts | 357° |
| 2026-05-04 07:17 | 54.91042 | 19.19243 | 35903 ft | 447 kts | 357° |
| 2026-05-04 07:18 | 54.97213 | 19.19657 | 35901 ft | 446 kts | 357° |
| 2026-05-04 07:18 | 55.03415 | 19.20073 | 35891 ft | 447 kts | 357° |
| 2026-05-04 07:19 | 55.09616 | 19.20492 | 35884 ft | 448 kts | 357° |
| 2026-05-04 07:19 | 55.15825 | 19.20915 | 35877 ft | 449 kts | 357° |
| 2026-05-04 07:20 | 55.22032 | 19.21337 | 35874 ft | 449 kts | 357° |
| 2026-05-04 07:20 | 55.28274 | 19.21763 | 35864 ft | 449 kts | 357° |
| 2026-05-04 07:22 | 55.53138 | 19.23476 | 35848 ft | 449 kts | 357° |
| 2026-05-04 07:23 | 55.59395 | 19.23909 | 35847 ft | 449 kts | 357° |
| 2026-05-04 07:23 | 55.65584 | 19.24340 | 35846 ft | 449 kts | 357° |
| 2026-05-04 07:24 | 55.71840 | 19.24774 | 35833 ft | 450 kts | 357° |
| 2026-05-04 07:24 | 55.78090 | 19.25211 | 35841 ft | 451 kts | 357° |
| 2026-05-04 07:26 | 56.03085 | 19.26973 | 35831 ft | 452 kts | 357° |
| 2026-05-04 07:27 | 56.09312 | 19.27415 | 35831 ft | 452 kts | 357° |
| 2026-05-04 07:27 | 56.15586 | 19.27862 | 35827 ft | 452 kts | 357° |
| 2026-05-04 07:28 | 56.21849 | 19.28384 | 35819 ft | 452 kts | 359° |
| 2026-05-04 07:28 | 56.28088 | 19.29942 | 35822 ft | 456 kts | 7° |
| 2026-05-04 07:29 | 56.34250 | 19.32591 | 35814 ft | 458 kts | 9° |
| 2026-05-04 07:29 | 56.40379 | 19.35396 | 35806 ft | 458 kts | 9° |
| 2026-05-04 07:30 | 56.46552 | 19.38197 | 35803 ft | 457 kts | 9° |
| 2026-05-04 07:30 | 56.52716 | 19.40984 | 35798 ft | 458 kts | 9° |
| 2026-05-04 07:31 | 56.58842 | 19.43759 | 35796 ft | 458 kts | 9° |
| 2026-05-04 07:33 | 56.83480 | 19.54925 | 35782 ft | 456 kts | 6° |
| 2026-05-04 07:33 | 56.89696 | 19.56583 | 35777 ft | 451 kts | 358° |
| 2026-05-04 07:34 | 56.95914 | 19.56940 | 35768 ft | 448 kts | 354° |
| 2026-05-04 07:34 | 57.02130 | 19.56979 | 35762 ft | 448 kts | 353° |
| 2026-05-04 07:35 | 57.08316 | 19.57037 | 35755 ft | 448 kts | 354° |
| 2026-05-04 07:35 | 57.14561 | 19.57125 | 35746 ft | 448 kts | 354° |
| 2026-05-04 07:36 | 57.20793 | 19.57220 | 35744 ft | 449 kts | 354° |
| 2026-05-04 07:38 | 57.45678 | 19.57608 | 35738 ft | 449 kts | 354° |
| 2026-05-04 07:38 | 57.51908 | 19.57704 | 35749 ft | 449 kts | 353° |
| 2026-05-04 07:39 | 57.58107 | 19.57800 | 35749 ft | 449 kts | 354° |
| 2026-05-04 07:39 | 57.64323 | 19.57898 | 35742 ft | 448 kts | 353° |
| 2026-05-04 07:40 | 57.70568 | 19.57996 | 35742 ft | 449 kts | 353° |
| 2026-05-04 07:40 | 57.76776 | 19.58091 | 35737 ft | 449 kts | 353° |
| 2026-05-04 07:41 | 57.83007 | 19.58190 | 35741 ft | 449 kts | 353° |
| 2026-05-04 07:41 | 57.89230 | 19.58288 | 35742 ft | 449 kts | 353° |
| 2026-05-04 07:42 | 57.95466 | 19.58389 | 35741 ft | 449 kts | 353° |
| 2026-05-04 07:42 | 58.01714 | 19.58486 | 35732 ft | 449 kts | 353° |
| 2026-05-04 07:43 | 58.07909 | 19.58585 | 35730 ft | 450 kts | 353° |
| 2026-05-04 07:43 | 58.14192 | 19.58691 | 35723 ft | 449 kts | 353° |
| 2026-05-04 07:44 | 58.20409 | 19.58797 | 35721 ft | 449 kts | 353° |
| 2026-05-04 07:44 | 58.26625 | 19.58899 | 35726 ft | 449 kts | 353° |
| 2026-05-04 07:45 | 58.32883 | 19.58999 | 35713 ft | 449 kts | 353° |
| 2026-05-04 07:45 | 58.39089 | 19.59099 | 35718 ft | 449 kts | 353° |
| 2026-05-04 07:46 | 58.45338 | 19.59201 | 35722 ft | 451 kts | 353° |
| 2026-05-04 07:46 | 58.51572 | 19.59305 | 35707 ft | 450 kts | 353° |
| 2026-05-04 07:47 | 58.57816 | 19.59410 | 35721 ft | 450 kts | 353° |
| 2026-05-04 07:49 | 58.82765 | 19.59823 | 35728 ft | 451 kts | 353° |
| 2026-05-04 07:49 | 58.89023 | 19.59926 | 35724 ft | 451 kts | 353° |
| 2026-05-04 07:50 | 58.95237 | 19.60031 | 35722 ft | 451 kts | 353° |
| 2026-05-04 07:50 | 59.01477 | 19.60135 | 35724 ft | 451 kts | 353° |
| 2026-05-04 07:51 | 59.07756 | 19.60238 | 35723 ft | 452 kts | 353° |
| 2026-05-04 07:51 | 59.13966 | 19.60163 | 35831 ft | 448 kts | 350° |
| 2026-05-04 07:52 | 59.20187 | 19.59685 | 35757 ft | 448 kts | 349° |
| 2026-05-04 07:52 | 59.26384 | 19.59181 | 35740 ft | 448 kts | 349° |
| 2026-05-04 07:54 | 59.51188 | 19.57208 | 35727 ft | 448 kts | 349° |
| 2026-05-04 07:55 | 59.57403 | 19.56710 | 35728 ft | 448 kts | 349° |
| 2026-05-04 07:55 | 59.63588 | 19.56214 | 35730 ft | 449 kts | 349° |
| 2026-05-04 07:56 | 59.69805 | 19.55714 | 35731 ft | 449 kts | 349° |
| 2026-05-04 07:56 | 59.76006 | 19.55214 | 35736 ft | 449 kts | 349° |
| 2026-05-04 07:57 | 59.82242 | 19.54710 | 35736 ft | 448 kts | 349° |
| 2026-05-04 07:57 | 59.88457 | 19.54204 | 35736 ft | 449 kts | 349° |
| 2026-05-04 07:58 | 59.94663 | 19.53698 | 35736 ft | 449 kts | 349° |
| 2026-05-04 07:58 | 60.00870 | 19.53190 | 35740 ft | 449 kts | 349° |
| 2026-05-04 07:59 | 60.07087 | 19.52676 | 35735 ft | 449 kts | 349° |
| 2026-05-04 07:59 | 60.13292 | 19.52168 | 35733 ft | 449 kts | 349° |
| 2026-05-04 08:00 | 60.19541 | 19.51663 | 35729 ft | 449 kts | 349° |
| 2026-05-04 08:02 | 60.44397 | 19.49590 | 35717 ft | 449 kts | 349° |
| 2026-05-04 08:02 | 60.50599 | 19.49065 | 35712 ft | 449 kts | 349° |
| 2026-05-04 08:03 | 60.56816 | 19.48538 | 35709 ft | 449 kts | 349° |
| 2026-05-04 08:03 | 60.63023 | 19.48012 | 35714 ft | 448 kts | 349° |
| 2026-05-04 08:04 | 60.69255 | 19.47477 | 35712 ft | 449 kts | 349° |
| 2026-05-04 08:04 | 60.75428 | 19.46948 | 35709 ft | 449 kts | 349° |
| 2026-05-04 08:05 | 60.81640 | 19.46414 | 35704 ft | 449 kts | 349° |
| 2026-05-04 08:05 | 60.87844 | 19.45879 | 35697 ft | 448 kts | 349° |
| 2026-05-04 08:06 | 60.94079 | 19.45334 | 35701 ft | 449 kts | 350° |
| 2026-05-04 08:06 | 61.00291 | 19.44794 | 35702 ft | 449 kts | 349° |
| 2026-05-04 08:08 | 61.25149 | 19.42620 | 35692 ft | 449 kts | 349° |
| 2026-05-04 08:11 | 61.53157 | 19.40736 | 35689 ft | 450 kts | 351° |
| 2026-05-04 08:11 | 61.62492 | 19.40243 | 35692 ft | 450 kts | 351° |
| 2026-05-04 08:12 | 61.68705 | 19.39907 | 35699 ft | 450 kts | 351° |
| 2026-05-04 08:12 | 61.74937 | 19.39570 | 35694 ft | 449 kts | 351° |
| 2026-05-04 08:13 | 61.81186 | 19.39229 | 35690 ft | 450 kts | 351° |
| 2026-05-04 08:13 | 61.87405 | 19.38888 | 35691 ft | 450 kts | 351° |
| 2026-05-04 08:14 | 61.93647 | 19.38544 | 35687 ft | 450 kts | 351° |
| 2026-05-04 08:16 | 62.18534 | 19.37181 | 35682 ft | 450 kts | 351° |
| 2026-05-04 08:16 | 62.24766 | 19.36835 | 35676 ft | 450 kts | 351° |
| 2026-05-04 08:17 | 62.31012 | 19.36482 | 35677 ft | 450 kts | 351° |
| 2026-05-04 08:17 | 62.37193 | 19.36135 | 35670 ft | 449 kts | 351° |
| 2026-05-04 08:19 | 62.62041 | 19.34717 | 35664 ft | 449 kts | 351° |
| 2026-05-04 08:20 | 62.68282 | 19.34354 | 35656 ft | 449 kts | 351° |
| 2026-05-04 08:20 | 62.74522 | 19.33995 | 35660 ft | 449 kts | 351° |
| 2026-05-04 08:21 | 62.80693 | 19.33637 | 35655 ft | 449 kts | 351° |
| 2026-05-04 08:21 | 62.86902 | 19.33273 | 35661 ft | 448 kts | 351° |
| 2026-05-04 08:22 | 62.93138 | 19.32906 | 35664 ft | 449 kts | 351° |
| 2026-05-04 08:24 | 63.17994 | 19.31446 | 35652 ft | 448 kts | 351° |
| 2026-05-04 08:24 | 63.24171 | 19.31078 | 35648 ft | 449 kts | 351° |
| 2026-05-04 08:25 | 63.30378 | 19.30706 | 35657 ft | 448 kts | 351° |
| 2026-05-04 08:25 | 63.36595 | 19.30329 | 35660 ft | 448 kts | 351° |
| 2026-05-04 08:27 | 63.61326 | 19.28814 | 35639 ft | 447 kts | 351° |
| 2026-05-04 08:28 | 63.67549 | 19.28425 | 35639 ft | 448 kts | 351° |
| 2026-05-04 08:28 | 63.73720 | 19.28040 | 35627 ft | 447 kts | 351° |
| 2026-05-04 08:29 | 63.79930 | 19.27651 | 35630 ft | 448 kts | 351° |
| 2026-05-04 08:31 | 64.04837 | 19.29021 | 35611 ft | 452 kts | 358° |
| 2026-05-04 08:33 | 64.29810 | 19.33826 | 35612 ft | 452 kts | 358° |
| 2026-05-04 08:35 | 64.54729 | 19.38651 | 35616 ft | 452 kts | 358° |
| 2026-05-04 08:35 | 64.60968 | 19.39872 | 35614 ft | 452 kts | 358° |
| 2026-05-04 08:37 | 64.82787 | 19.44192 | 35576 ft | 449 kts | 358° |
| 2026-05-04 08:37 | 64.85872 | 19.44811 | 35311 ft | 445 kts | 358° |
| 2026-05-04 08:38 | 64.88952 | 19.45431 | 34830 ft | 446 kts | 358° |
| 2026-05-04 08:38 | 64.92008 | 19.46044 | 34386 ft | 445 kts | 358° |
| 2026-05-04 08:38 | 64.95081 | 19.46664 | 33934 ft | 445 kts | 358° |
| 2026-05-04 08:40 | 65.16758 | 19.51062 | 30654 ft | 458 kts | 356° |
| 2026-05-04 08:40 | 65.19945 | 19.51712 | 30021 ft | 461 kts | 356° |
| 2026-05-04 08:40 | 65.23079 | 19.52350 | 29407 ft | 461 kts | 356° |
| 2026-05-04 08:41 | 65.26257 | 19.53001 | 28742 ft | 462 kts | 356° |
| 2026-05-04 08:41 | 65.29449 | 19.53658 | 28041 ft | 463 kts | 356° |
| 2026-05-04 08:41 | 65.32639 | 19.54317 | 27444 ft | 461 kts | 356° |
| 2026-05-04 08:41 | 65.35809 | 19.54982 | 26990 ft | 455 kts | 356° |
| 2026-05-04 08:42 | 65.38903 | 19.55632 | 26495 ft | 451 kts | 356° |
| 2026-05-04 08:42 | 65.42007 | 19.56281 | 25983 ft | 447 kts | 356° |
| 2026-05-04 08:42 | 65.45083 | 19.56924 | 25492 ft | 444 kts | 356° |
| 2026-05-04 08:42 | 65.48144 | 19.57560 | 24985 ft | 440 kts | 356° |
| 2026-05-04 08:43 | 65.51137 | 19.58187 | 24492 ft | 436 kts | 356° |
| 2026-05-04 08:43 | 65.54121 | 19.58809 | 23994 ft | 432 kts | 356° |
| 2026-05-04 08:43 | 65.57082 | 19.59426 | 23626 ft | 425 kts | 357° |
| 2026-05-04 08:43 | 65.59964 | 19.60041 | 23439 ft | 413 kts | 357° |
| 2026-05-04 08:44 | 65.62784 | 19.60645 | 23246 ft | 402 kts | 357° |
| 2026-05-04 08:44 | 65.65543 | 19.61230 | 22992 ft | 394 kts | 357° |
| 2026-05-04 08:46 | 65.70158 | 19.88965 | 21209 ft | 285 kts | 172° |
| 2026-05-04 08:46 | 65.68302 | 19.89840 | 20990 ft | 268 kts | 185° |
| 2026-05-04 08:46 | 65.66486 | 19.89843 | 20736 ft | 259 kts | 189° |
| 2026-05-04 08:46 | 65.64723 | 19.89537 | 20468 ft | 249 kts | 199° |
| 2026-05-04 08:47 | 65.63135 | 19.88218 | 20233 ft | 238 kts | 211° |
| 2026-05-04 08:47 | 65.61800 | 19.86068 | 19984 ft | 230 kts | 220° |
| 2026-05-04 08:47 | 65.60558 | 19.83624 | 19652 ft | 228 kts | 221° |
| 2026-05-04 08:47 | 65.59342 | 19.81253 | 19287 ft | 229 kts | 220° |
| 2026-05-04 08:48 | 65.58101 | 19.78870 | 18944 ft | 228 kts | 219° |
| 2026-05-04 08:48 | 65.56857 | 19.76510 | 18584 ft | 228 kts | 219° |
| 2026-05-04 08:48 | 65.55614 | 19.74169 | 18251 ft | 227 kts | 219° |
| 2026-05-04 08:48 | 65.54373 | 19.71841 | 17894 ft | 227 kts | 219° |
| 2026-05-04 08:49 | 65.53118 | 19.69492 | 17548 ft | 227 kts | 220° |
| 2026-05-04 08:50 | 65.52798 | 19.48875 | 15498 ft | 253 kts | 313° |
| 2026-05-04 08:50 | 65.54273 | 19.46521 | 15172 ft | 260 kts | 332° |
| 2026-05-04 08:51 | 65.56040 | 19.45379 | 14870 ft | 267 kts | 352° |
| 2026-05-04 08:51 | 65.57889 | 19.45692 | 14576 ft | 271 kts | 12° |
| 2026-05-04 08:51 | 65.59617 | 19.47488 | 14286 ft | 272 kts | 33° |
| 2026-05-04 08:51 | 65.61125 | 19.50197 | 14000 ft | 272 kts | 38° |
| 2026-05-04 08:52 | 65.62574 | 19.53067 | 13689 ft | 271 kts | 39° |
| 2026-05-04 08:52 | 65.64033 | 19.55947 | 13382 ft | 270 kts | 38° |
| 2026-05-04 08:52 | 65.65494 | 19.58770 | 13113 ft | 268 kts | 37° |
| 2026-05-04 08:52 | 65.66953 | 19.61544 | 12841 ft | 266 kts | 37° |
| 2026-05-04 08:53 | 65.68259 | 19.64645 | 12534 ft | 265 kts | 56° |
| 2026-05-04 08:54 | 65.63979 | 19.85790 | 10444 ft | 226 kts | 182° |
| 2026-05-04 08:55 | 65.62439 | 19.85399 | 10124 ft | 222 kts | 198° |
| 2026-05-04 08:55 | 65.61017 | 19.84042 | 9817 ft | 218 kts | 212° |
| 2026-05-04 08:55 | 65.59789 | 19.81971 | 9608 ft | 216 kts | 221° |
| 2026-05-04 08:55 | 65.58878 | 19.79154 | 9570 ft | 217 kts | 253° |
| 2026-05-04 08:57 | 65.68514 | 19.69699 | 9565 ft | 298 kts | 57° |
| 2026-05-04 09:01 | 65.78989 | 20.32261 | 4005 ft | 249 kts | 70° |
| 2026-05-04 09:01 | 65.79618 | 20.36065 | 3706 ft | 235 kts | 71° |
| 2026-05-04 09:01 | 65.80213 | 20.39666 | 3429 ft | 223 kts | 71° |
| 2026-05-04 09:01 | 65.80772 | 20.43057 | 3175 ft | 211 kts | 71° |
| 2026-05-04 09:02 | 65.81360 | 20.46198 | 2915 ft | 203 kts | 57° |
| 2026-05-04 09:02 | 65.82327 | 20.48533 | 2694 ft | 194 kts | 31° |
| 2026-05-04 09:02 | 65.83558 | 20.49484 | 2495 ft | 184 kts | 353° |
| 2026-05-04 09:02 | 65.84623 | 20.48383 | 2363 ft | 160 kts | 309° |
| 2026-05-04 09:03 | 65.85009 | 20.45921 | 2450 ft | 160 kts | 272° |
| 2026-05-04 09:03 | 65.85064 | 20.43210 | 2478 ft | 162 kts | 266° |
| 2026-05-04 09:03 | 65.85043 | 20.40467 | 2477 ft | 163 kts | 258° |
| 2026-05-04 09:03 | 65.84770 | 20.37771 | 2482 ft | 160 kts | 248° |
| 2026-05-04 09:04 | 65.84441 | 20.35242 | 2241 ft | 158 kts | 254° |
| 2026-05-04 09:04 | 65.84605 | 20.32597 | 1984 ft | 167 kts | 291° |
| 2026-05-04 09:04 | 65.85046 | 20.29974 | 1799 ft | 166 kts | 284° |
| 2026-05-04 09:04 | 65.85278 | 20.27279 | 1459 ft | 163 kts | 279° |
| 2026-05-04 09:05 | 65.85616 | 20.24658 | 1148 ft | 162 kts | 290° |
| 2026-05-04 09:05 | 65.86069 | 20.22191 | 957 ft | 161 kts | 294° |
| 2026-05-04 09:05 | 65.86564 | 20.19706 | 810 ft | 162 kts | 295° |
| 2026-05-04 09:05 | 65.87043 | 20.17349 | 625 ft | 146 kts | 296° |
| 2026-05-04 09:06 | 65.87465 | 20.15308 | 588 ft | 109 kts | 299° |
| 2026-05-04 09:07 | 65.87590 | 20.13576 | 590 ft | 1 kts | 299° |
| 2026-05-04 09:08 | 65.87598 | 20.13542 | 591 ft | 0 kts | 295° |